Time;durP1;ratioP1;P1;durP2;ratioP2;P2;SDS_P1;SDS_P2;PMS_P1;PMS_P2;Temp;Humidity;BMP_temperature;BMP_pressure;BME280_temperature;BME280_humidity;BME280_pressure;Samples;Min_cycle;Max_cycle;Signal;HPM_P1;HPM_P2
2022/10/23 00:23:48;;;;;;;18.52;4.38;;;21.70;74.60;;;;;;5057407;27;20453;-68
2022/10/23 00:26:16;;;;;;;15.25;5.47;;;22.00;75.40;;;;;;5032043;28;20103;-68
2022/10/23 00:28:48;;;;;;;9.07;2.33;;;22.00;75.40;;;;;;5032466;28;20029;-68
2022/10/23 00:31:15;;;;;;;6.63;2.50;;;22.00;75.00;;;;;;5026457;28;20188;-68
2022/10/23 00:33:43;;;;;;;7.85;2.13;;;22.00;74.30;;;;;;5028624;28;20021;-72
2022/10/23 00:36:11;;;;;;;24.92;6.30;;;22.00;73.50;;;;;;5032550;28;20021;-69
2022/10/23 00:38:41;;;;;;;15.60;2.53;;;22.00;73.90;;;;;;5026734;28;20104;-68
2022/10/23 00:41:12;;;;;;;15.50;4.13;;;22.10;74.50;;;;;;5035923;28;20530;-68
2022/10/23 00:43:58;;;;;;;14.73;2.60;;;22.10;74.90;;;;;;5026821;28;20029;-69
2022/10/23 00:46:25;;;;;;;13.52;2.03;;;22.10;75.00;;;;;;5027088;28;20024;-68
2022/10/23 00:48:51;;;;;;;9.23;3.10;;;22.10;75.10;;;;;;5026210;28;21002;-68
2022/10/23 00:51:18;;;;;;;11.02;2.55;;;22.10;74.60;;;;;;5024164;28;20033;-68
2022/10/23 00:53:47;;;;;;;15.23;3.13;;;22.10;73.80;;;;;;5029529;28;20029;-68
2022/10/23 00:56:14;;;;;;;15.27;4.75;;;22.10;73.70;;;;;;5022950;28;20022;-69
2022/10/23 00:58:40;;;;;;;12.88;3.35;;;22.10;74.10;;;;;;5033807;28;20415;-70
2022/10/23 01:01:22;;;;;;;19.75;3.17;;;22.10;73.80;;;;;;5027376;28;20488;-69
2022/10/23 01:03:50;;;;;;;5.00;2.78;;;22.10;74.10;;;;;;5021897;28;20029;-68
2022/10/23 01:06:41;;;;;;;6.78;2.30;;;22.10;74.40;;;;;;5028439;28;20026;-69
2022/10/23 01:09:25;;;;;;;11.80;4.05;;;22.10;74.70;;;;;;5033542;28;20032;-70
2022/10/23 01:11:54;;;;;;;8.27;2.67;;;22.10;74.60;;;;;;5024208;28;20034;-69
2022/10/23 01:14:53;;;;;;;6.63;2.13;;;22.10;74.60;;;;;;5026588;28;20550;-69
2022/10/23 01:17:38;;;;;;;10.25;2.08;;;22.10;74.60;;;;;;5013311;28;20045;-68
2022/10/23 01:20:11;;;;;;;5.25;2.00;;;22.00;74.30;;;;;;5026949;28;20018;-69
2022/10/23 01:23:00;;;;;;;8.43;2.45;;;22.10;74.30;;;;;;5026261;28;20046;-70
2022/10/23 01:26:26;;;;;;;13.05;2.63;;;22.00;74.20;;;;;;5017293;28;20476;-70
2022/10/23 01:29:09;;;;;;;10.88;2.15;;;22.00;74.30;;;;;;4989522;28;20055;-69
2022/10/23 01:31:42;;;;;;;5.55;1.70;;;22.00;74.30;;;;;;4988315;28;20053;-68
2022/10/23 01:34:14;;;;;;;7.38;1.75;;;22.00;74.30;;;;;;5006887;28;20168;-68
2022/10/23 01:36:43;;;;;;;6.47;1.80;;;22.00;74.30;;;;;;5013841;28;20443;-69
2022/10/23 01:39:36;;;;;;;8.77;2.30;;;22.00;74.30;;;;;;5019185;28;20025;-69
2022/10/23 01:42:14;;;;;;;5.38;2.25;;;22.00;74.30;;;;;;5009724;28;20100;-71
2022/10/23 01:45:07;;;;;;;8.65;3.03;;;22.00;74.30;;;;;;5010038;28;20045;-70
2022/10/23 01:47:35;;;;;;;8.52;2.55;;;21.90;74.20;;;;;;5009189;28;20034;-68
2022/10/23 01:50:04;;;;;;;10.23;3.58;;;22.00;74.30;;;;;;5021518;28;20089;-68
2022/10/23 01:52:31;;;;;;;7.85;2.65;;;22.00;74.30;;;;;;5011613;28;20128;-68
2022/10/23 01:55:00;;;;;;;8.35;2.35;;;22.00;74.30;;;;;;5017042;28;20017;-69
2022/10/23 01:57:30;;;;;;;8.02;1.75;;;22.00;74.30;;;;;;5011050;28;20046;-69
2022/10/23 02:00:06;;;;;;;6.32;2.03;;;22.00;74.30;;;;;;5015134;28;20025;-70
2022/10/23 02:02:34;;;;;;;9.50;2.13;;;22.00;74.30;;;;;;5016598;28;20033;-68
2022/10/23 02:05:15;;;;;;;5.97;2.63;;;22.00;74.30;;;;;;5011747;28;20033;-70
2022/10/23 02:07:42;;;;;;;6.60;1.80;;;21.90;74.20;;;;;;5012619;28;20026;-69
2022/10/23 02:10:09;;;;;;;6.82;2.80;;;21.90;74.20;;;;;;5015995;28;20391;-69
2022/10/23 02:13:04;;;;;;;6.63;1.70;;;21.90;74.90;;;;;;5013726;28;20366;-70
2022/10/23 02:15:39;;;;;;;9.32;2.70;;;21.90;74.30;;;;;;5006200;28;20035;-70
2022/10/23 02:18:44;;;;;;;26.90;14.75;;;21.90;74.50;;;;;;5008143;28;20049;-73
2022/10/23 02:21:14;;;;;;;9.05;6.63;;;21.90;74.60;;;;;;5011515;28;20129;-70
2022/10/23 02:23:49;;;;;;;9.38;4.75;;;21.90;74.50;;;;;;5016601;28;20053;-71
2022/10/23 02:26:35;;;;;;;9.52;3.42;;;21.90;74.50;;;;;;5006507;28;20018;-69
2022/10/23 02:29:15;;;;;;;5.53;2.67;;;21.90;74.40;;;;;;5011945;28;20044;-69
2022/10/23 02:31:41;;;;;;;7.28;2.95;;;21.90;74.40;;;;;;5015534;28;20031;-70
2022/10/23 02:34:08;;;;;;;7.10;1.80;;;21.80;74.40;;;;;;5016828;28;20064;-70
2022/10/23 02:36:34;;;;;;;3.03;1.60;;;21.80;74.40;;;;;;5009723;28;20021;-69
2022/10/23 02:39:01;;;;;;;5.18;2.30;;;21.80;75.00;;;;;;5016969;28;20362;-69
2022/10/23 02:41:37;;;;;;;8.55;2.20;;;21.80;74.40;;;;;;5015171;28;20026;-69
2022/10/23 02:44:20;;;;;;;6.88;1.67;;;21.80;74.30;;;;;;5023857;28;20035;-68
2022/10/23 02:47:12;;;;;;;20.33;3.08;;;21.80;74.00;;;;;;5016743;28;20079;-70
2022/10/23 02:50:02;;;;;;;9.05;2.92;;;21.80;73.90;;;;;;5012795;28;20107;-68
2022/10/23 02:52:40;;;;;;;7.93;1.92;;;21.70;73.80;;;;;;5010084;28;20492;-69
2022/10/23 02:55:15;;;;;;;8.75;2.60;;;21.70;74.70;;;;;;5019083;28;20036;-68
2022/10/23 02:58:16;;;;;;;12.40;1.77;;;21.80;75.10;;;;;;5010226;28;20933;-68
2022/10/23 03:00:48;;;;;;;4.50;2.28;;;21.70;74.60;;;;;;4996327;28;20049;-68
2022/10/23 03:03:27;;;;;;;6.40;1.85;;;21.70;74.20;;;;;;5012586;28;20119;-70
2022/10/23 03:05:53;;;;;;;12.05;2.60;;;21.70;73.80;;;;;;5011666;28;20109;-68
2022/10/23 03:08:20;;;;;;;10.50;2.10;;;21.70;73.60;;;;;;5013974;28;20022;-68
2022/10/23 03:10:46;;;;;;;6.53;1.58;;;21.60;73.40;;;;;;5019336;28;20044;-68
2022/10/23 03:13:13;;;;;;;3.55;1.40;;;21.60;73.30;;;;;;5018740;28;20029;-69
2022/10/23 03:15:39;;;;;;;3.42;2.00;;;21.60;73.30;;;;;;5008004;28;20034;-69
2022/10/23 03:18:06;;;;;;;6.47;2.72;;;21.60;73.30;;;;;;5014148;28;20642;-68
2022/10/23 03:20:32;;;;;;;8.15;1.67;;;21.60;73.20;;;;;;5013124;28;20027;-69
2022/10/23 03:22:59;;;;;;;8.40;1.77;;;21.60;73.10;;;;;;5014328;28;20044;-70
2022/10/23 03:25:25;;;;;;;5.32;2.40;;;21.60;73.00;;;;;;5015546;28;20064;-68
2022/10/23 03:27:52;;;;;;;6.80;2.72;;;21.60;73.00;;;;;;5013908;28;20021;-68
2022/10/23 03:30:18;;;;;;;6.60;1.85;;;21.60;73.00;;;;;;5011502;28;20029;-68
2022/10/23 03:32:45;;;;;;;9.88;1.75;;;21.60;73.00;;;;;;5013299;28;20095;-68
2022/10/23 03:35:11;;;;;;;13.35;2.20;;;21.60;73.00;;;;;;5016731;28;20025;-72
2022/10/23 03:37:38;;;;;;;24.13;2.67;;;21.60;73.60;;;;;;5010127;28;20026;-69
2022/10/23 03:40:05;;;;;;;9.98;2.00;;;21.60;74.00;;;;;;5012585;28;20704;-69
2022/10/23 03:42:31;;;;;;;7.70;1.52;;;21.60;74.10;;;;;;5012879;28;20350;-69
2022/10/23 03:44:58;;;;;;;7.28;2.28;;;21.60;73.90;;;;;;5012408;28;20022;-68
2022/10/23 03:47:24;;;;;;;7.60;2.28;;;21.50;73.90;;;;;;5009745;28;20041;-69
2022/10/23 03:49:51;;;;;;;7.47;2.55;;;21.50;73.90;;;;;;5011128;28;20032;-68
2022/10/23 03:52:17;;;;;;;11.02;2.28;;;21.50;73.80;;;;;;5007639;28;20042;-68
2022/10/23 03:54:44;;;;;;;10.13;1.70;;;21.50;73.80;;;;;;5010807;28;20087;-69
2022/10/23 03:57:10;;;;;;;7.53;2.08;;;21.40;73.80;;;;;;5014008;28;20014;-69
2022/10/23 03:59:37;;;;;;;7.93;2.67;;;21.40;73.80;;;;;;5020431;28;20018;-68
2022/10/23 04:02:03;;;;;;;43.28;4.28;;;21.40;73.90;;;;;;5012400;28;20665;-68
2022/10/23 04:04:30;;;;;;;25.20;8.75;;;21.40;74.00;;;;;;5007271;28;21109;-72
2022/10/23 04:06:56;;;;;;;22.17;10.35;;;21.40;74.50;;;;;;5013117;28;20438;-69
2022/10/23 04:09:22;;;;;;;12.55;4.90;;;21.40;74.50;;;;;;5010167;28;20473;-69
2022/10/23 04:11:49;;;;;;;9.43;4.68;;;21.40;74.40;;;;;;5019547;28;20044;-68
2022/10/23 04:14:15;;;;;;;29.85;8.77;;;21.30;74.30;;;;;;5009614;28;20018;-73
2022/10/23 04:16:42;;;;;;;9.85;3.92;;;21.40;74.40;;;;;;5008923;28;20018;-68
2022/10/23 04:19:09;;;;;;;12.18;2.63;;;21.30;74.40;;;;;;5008780;28;20030;-70
2022/10/23 04:21:35;;;;;;;5.45;2.88;;;21.40;74.50;;;;;;5009630;28;20022;-69
2022/10/23 04:24:02;;;;;;;7.65;2.45;;;21.30;74.40;;;;;;5010152;28;20026;-69
2022/10/23 04:26:29;;;;;;;5.88;2.10;;;21.30;74.50;;;;;;5008979;28;20018;-69
2022/10/23 04:28:55;;;;;;;6.13;1.77;;;21.30;74.50;;;;;;5020193;28;20064;-68
2022/10/23 04:31:22;;;;;;;8.18;2.08;;;21.30;74.60;;;;;;5011020;28;20037;-70
2022/10/23 04:33:48;;;;;;;7.55;2.30;;;21.30;75.40;;;;;;5006733;28;20156;-70
2022/10/23 04:36:15;;;;;;;3.63;1.83;;;21.30;74.80;;;;;;5009105;28;20489;-69
2022/10/23 04:38:41;;;;;;;4.70;2.30;;;21.30;74.80;;;;;;5007869;28;20027;-70
2022/10/23 04:41:08;;;;;;;4.90;2.03;;;21.30;74.80;;;;;;5010565;28;20104;-69
2022/10/23 04:43:34;;;;;;;7.50;2.28;;;21.30;74.90;;;;;;5009869;28;20109;-69
2022/10/23 04:46:01;;;;;;;7.40;1.98;;;21.30;74.90;;;;;;5011139;28;20022;-71
2022/10/23 04:48:27;;;;;;;7.32;2.42;;;21.40;75.20;;;;;;5009072;28;20018;-69
2022/10/23 04:51:02;;;;;;;5.63;1.95;;;21.30;75.60;;;;;;5011213;28;20120;-67
2022/10/23 04:53:29;;;;;;;9.02;2.97;;;21.30;76.20;;;;;;5008766;28;20022;-70
2022/10/23 04:56:35;;;;;;;11.07;2.85;;;21.40;76.40;;;;;;5008956;28;20022;-71
2022/10/23 04:59:02;;;;;;;9.60;3.73;;;21.40;76.30;;;;;;5013664;28;20034;-66
2022/10/23 05:01:28;;;;;;;27.85;10.55;;;21.40;76.10;;;;;;5011310;28;20081;-69
2022/10/23 05:03:55;;;;;;;37.20;12.75;;;21.40;76.70;;;;;;5013533;28;20033;-67
2022/10/23 05:06:22;;;;;;;33.25;11.40;;;21.40;77.20;;;;;;5004403;28;20022;-71
2022/10/23 05:08:48;;;;;;;11.13;5.97;;;21.40;77.10;;;;;;5014020;28;20021;-69
2022/10/23 05:11:15;;;;;;;10.85;4.60;;;21.40;76.70;;;;;;5007567;28;20029;-68
2022/10/23 05:13:42;;;;;;;10.27;4.82;;;21.50;76.50;;;;;;5007467;28;20366;-67
2022/10/23 05:16:08;;;;;;;14.23;3.25;;;21.50;76.30;;;;;;5002987;28;20029;-67
2022/10/23 05:18:45;;;;;;;7.45;2.63;;;21.50;76.10;;;;;;5006911;28;20026;-67
2022/10/23 05:21:21;;;;;;;8.60;2.90;;;21.50;76.00;;;;;;5002561;28;20540;-67
2022/10/23 05:23:47;;;;;;;5.18;2.17;;;21.50;75.90;;;;;;5004067;28;20029;-67
2022/10/23 05:26:14;;;;;;;6.40;2.03;;;21.50;75.80;;;;;;5003388;28;20049;-70
2022/10/23 05:28:40;;;;;;;5.00;2.10;;;21.50;75.70;;;;;;4997365;28;20526;-67
2022/10/23 05:31:21;;;;;;;;;;;;;;;;;;;;;
2022/10/23 05:33:48;;;;;;;8.23;1.77;;;21.60;75.70;;;;;;4999814;28;20022;-69
2022/10/23 05:36:26;;;;;;;5.68;2.17;;;21.60;75.60;;;;;;5005238;28;20026;-67
2022/10/23 05:38:53;;;;;;;8.65;2.35;;;21.60;75.50;;;;;;5017885;28;20030;-66
2022/10/23 05:41:19;;;;;;;11.55;2.30;;;21.70;75.70;;;;;;5011998;28;20443;-70
2022/10/23 05:43:46;;;;;;;12.85;2.40;;;21.70;76.90;;;;;;5017827;28;20028;-66
2022/10/23 05:46:13;;;;;;;21.83;11.93;;;21.70;77.50;;;;;;5011596;28;20382;-66
2022/10/23 05:48:39;;;;;;;33.42;18.88;;;21.70;77.80;;;;;;5006183;28;20026;-66
2022/10/23 05:51:08;;;;;;;26.75;17.25;;;21.80;77.60;;;;;;5005873;28;20739;-66
2022/10/23 05:53:35;;;;;;;22.30;11.50;;;21.80;77.20;;;;;;5008329;28;20022;-70
2022/10/23 05:56:17;;;;;;;13.90;9.68;;;21.80;76.90;;;;;;5001638;28;20155;-68
2022/10/23 05:58:45;;;;;;;47.00;8.60;;;21.80;76.60;;;;;;5008370;28;20036;-69
2022/10/23 06:01:14;;;;;;;190.13;31.42;;;21.90;76.40;;;;;;5014544;28;20480;-65
2022/10/23 06:03:40;;;;;;;204.07;33.40;;;21.90;76.50;;;;;;5007801;28;20018;-67
2022/10/23 06:06:30;;;;;;;179.45;28.40;;;21.90;76.30;;;;;;5012276;28;20034;-69
2022/10/23 06:09:02;;;;;;;119.75;19.27;;;21.90;76.10;;;;;;5044658;28;20041;-67
2022/10/23 06:11:29;;;;;;;99.78;19.33;;;22.00;76.50;;;;;;5008793;28;20053;-69
2022/10/23 06:14:17;;;;;;;61.88;14.95;;;22.00;76.70;;;;;;5012829;28;20026;-72
2022/10/23 06:16:44;;;;;;;33.40;10.55;;;22.10;76.70;;;;;;5011205;28;20114;-69
2022/10/23 06:19:11;;;;;;;28.92;7.43;;;22.00;76.40;;;;;;5006357;28;20109;-71
2022/10/23 06:21:39;;;;;;;11.57;4.03;;;22.10;76.20;;;;;;5008823;28;20022;-71
2022/10/23 06:24:06;;;;;;;15.13;3.30;;;22.10;76.10;;;;;;5008543;28;20569;-70
2022/10/23 06:26:33;;;;;;;11.45;2.63;;;22.10;76.20;;;;;;5011376;28;20511;-70
2022/10/23 06:29:00;;;;;;;7.00;2.50;;;22.10;76.40;;;;;;5010903;28;20054;-67
2022/10/23 06:32:06;;;;;;;5.43;3.47;;;22.20;76.50;;;;;;5004955;28;20057;-67
2022/10/23 06:35:12;;;;;;;13.80;4.95;;;22.20;76.70;;;;;;5007332;28;20025;-70
2022/10/23 06:38:18;;;;;;;7.57;2.45;;;22.20;76.80;;;;;;5006992;28;20923;-68
2022/10/23 06:41:24;;;;;;;5.93;2.28;;;22.30;76.60;;;;;;5013087;28;20159;-67
2022/10/23 06:44:30;;;;;;;6.35;2.08;;;22.30;76.30;;;;;;5003850;28;20054;-73
2022/10/23 06:46:57;;;;;;;4.25;2.13;;;22.40;76.00;;;;;;5008363;28;20018;-75
2022/10/23 06:49:27;;;;;;;8.00;2.22;;;22.40;75.80;;;;;;5010108;28;20112;-74
2022/10/23 06:51:53;;;;;;;11.95;2.45;;;22.40;75.70;;;;;;5006499;28;20049;-74
2022/10/23 06:54:20;;;;;;;41.05;6.10;;;22.40;75.50;;;;;;5002163;28;20034;-69
2022/10/23 06:56:46;;;;;;;9.82;2.60;;;22.50;75.40;;;;;;5003298;28;20045;-68
2022/10/23 06:59:13;;;;;;;8.57;3.15;;;22.50;75.30;;;;;;5007168;28;20021;-68
2022/10/23 07:01:39;;;;;;;8.90;3.42;;;22.50;75.20;;;;;;5009849;28;20018;-68
2022/10/23 07:04:06;;;;;;;8.68;1.95;;;22.60;75.00;;;;;;5004644;28;20113;-72
2022/10/23 07:06:32;;;;;;;7.15;2.03;;;22.60;74.80;;;;;;5000987;28;20030;-71
2022/10/23 07:08:59;;;;;;;6.85;1.98;;;22.60;74.70;;;;;;5008502;28;20125;-70
2022/10/23 07:11:26;;;;;;;7.25;1.95;;;22.60;74.50;;;;;;5008316;28;20538;-70
2022/10/23 07:13:53;;;;;;;9.57;2.20;;;22.70;74.30;;;;;;5011779;28;20580;-71
2022/10/23 07:16:22;;;;;;;7.22;2.00;;;22.70;74.20;;;;;;5004182;28;20034;-73
2022/10/23 07:18:57;;;;;;;2.05;1.58;;;22.80;74.00;;;;;;5004648;28;20076;-70
2022/10/23 07:21:25;;;;;;;3.58;1.63;;;22.80;73.80;;;;;;5006906;28;20743;-71
2022/10/23 07:23:51;;;;;;;9.85;1.90;;;22.80;73.60;;;;;;5003228;28;20396;-71
2022/10/23 07:26:18;;;;;;;4.10;2.42;;;22.80;73.40;;;;;;5010733;28;20025;-68
2022/10/23 07:28:46;;;;;;;9.07;2.42;;;22.90;73.20;;;;;;5008639;28;20072;-68
2022/10/23 07:31:13;;;;;;;5.47;1.92;;;22.90;73.10;;;;;;5005249;28;20049;-73
2022/10/23 07:33:40;;;;;;;3.83;1.77;;;23.10;73.10;;;;;;5001502;28;20493;-70
2022/10/23 07:36:08;;;;;;;4.60;2.00;;;23.10;72.90;;;;;;5008303;28;20068;-70
2022/10/23 07:38:38;;;;;;;12.13;2.70;;;23.20;73.40;;;;;;5011432;28;20612;-69
2022/10/23 07:41:05;;;;;;;2.88;1.40;;;23.20;72.40;;;;;;5011487;28;20123;-70
2022/10/23 07:43:32;;;;;;;2.53;1.17;;;23.30;71.90;;;;;;5004091;28;20029;-69
2022/10/23 07:45:59;;;;;;;4.60;1.33;;;23.30;71.30;;;;;;5004101;28;20037;-70
2022/10/23 07:48:26;;;;;;;5.30;2.00;;;23.40;70.90;;;;;;5004992;28;20079;-69
2022/10/23 07:50:56;;;;;;;11.30;3.30;;;23.40;70.90;;;;;;5006066;28;20024;-69
2022/10/23 07:53:24;;;;;;;8.27;2.00;;;23.50;71.00;;;;;;4996853;28;20049;-70
2022/10/23 07:55:56;;;;;;;3.53;1.40;;;23.50;71.00;;;;;;5001684;28;20022;-69
2022/10/23 07:58:24;;;;;;;7.32;4.13;;;23.60;70.90;;;;;;5003064;28;20748;-69
2022/10/23 08:00:54;;;;;;;6.38;2.55;;;23.70;70.90;;;;;;4998732;28;20030;-68
2022/10/23 08:03:21;;;;;;;4.85;1.95;;;23.70;70.80;;;;;;5010366;28;20034;-69
2022/10/23 08:05:48;;;;;;;5.78;2.55;;;23.80;70.80;;;;;;5006928;28;20026;-69
2022/10/23 08:08:15;;;;;;;7.07;1.77;;;23.80;70.70;;;;;;4996579;28;20113;-67
2022/10/23 08:10:41;;;;;;;5.82;1.20;;;23.90;70.70;;;;;;5005937;28;20489;-69
2022/10/23 08:13:12;;;;;;;6.15;1.67;;;23.90;70.70;;;;;;5004237;28;20040;-69
2022/10/23 08:15:39;;;;;;;4.55;2.15;;;24.00;70.30;;;;;;5004228;28;20029;-68
2022/10/23 08:18:05;;;;;;;3.45;1.30;;;24.10;70.00;;;;;;5006423;28;20021;-70
2022/10/23 08:20:33;;;;;;;4.57;1.95;;;24.10;69.70;;;;;;5009928;28;20038;-69
2022/10/23 08:22:59;;;;;;;3.75;1.50;;;24.10;69.40;;;;;;5005955;28;20057;-69
2022/10/23 08:25:26;;;;;;;5.55;1.25;;;24.20;69.50;;;;;;5005043;28;20018;-69
2022/10/23 08:27:52;;;;;;;6.90;3.08;;;24.20;69.50;;;;;;5001633;28;20026;-69
2022/10/23 08:30:19;;;;;;;3.50;1.10;;;24.30;69.30;;;;;;5002567;28;20034;-70
2022/10/23 08:32:45;;;;;;;5.28;1.38;;;24.30;68.80;;;;;;5001067;28;20034;-69
2022/10/23 08:35:11;;;;;;;2.75;1.10;;;24.40;68.40;;;;;;5009942;28;20034;-70
2022/10/23 08:37:50;;;;;;;5.43;1.70;;;24.40;68.00;;;;;;5007767;28;20038;-73
2022/10/23 08:40:21;;;;;;;2.42;1.25;;;24.50;67.80;;;;;;5008220;28;20040;-69
2022/10/23 08:43:00;;;;;;;5.18;1.48;;;24.50;67.40;;;;;;5010317;28;20026;-70
2022/10/23 08:45:44;;;;;;;4.45;1.60;;;24.60;67.30;;;;;;5006284;28;20111;-71
2022/10/23 08:48:58;;;;;;;4.45;1.50;;;24.60;67.20;;;;;;5015051;28;20056;-70
2022/10/23 08:51:49;;;;;;;3.85;1.55;;;24.70;66.90;;;;;;4977979;28;20039;-70
2022/10/23 08:54:42;;;;;;;7.53;3.17;;;24.80;66.70;;;;;;5006539;28;20042;-72
2022/10/23 08:57:16;;;;;;;6.32;1.73;;;24.80;66.60;;;;;;5026591;28;20065;-71
2022/10/23 08:59:51;;;;;;;3.50;1.70;;;24.90;66.40;;;;;;5015111;28;20026;-69
2022/10/23 09:02:37;;;;;;;4.35;1.98;;;24.90;66.30;;;;;;5011721;28;20076;-69
2022/10/23 09:05:10;;;;;;;23.77;2.75;;;25.00;66.20;;;;;;5007711;28;20378;-70
2022/10/23 09:07:59;;;;;;;5.57;2.53;;;25.00;66.10;;;;;;5008940;28;20045;-69
2022/10/23 09:10:53;;;;;;;4.18;1.88;;;25.10;66.30;;;;;;5012662;28;20080;-70
2022/10/23 09:13:53;;;;;;;6.88;2.92;;;25.20;66.40;;;;;;5008074;28;20092;-70
2022/10/23 09:16:26;;;;;;;13.20;2.65;;;25.20;66.60;;;;;;5009092;28;20034;-69
2022/10/23 09:18:54;;;;;;;8.05;2.45;;;25.30;66.50;;;;;;5006101;28;20112;-73
2022/10/23 09:21:27;;;;;;;6.95;1.83;;;25.30;66.20;;;;;;5008437;28;20017;-69
2022/10/23 09:23:53;;;;;;;5.25;1.92;;;25.40;65.90;;;;;;5015113;28;20095;-69
2022/10/23 09:26:22;;;;;;;7.82;2.83;;;25.50;65.70;;;;;;5010719;28;20033;-70
2022/10/23 09:28:51;;;;;;;12.45;2.10;;;25.50;65.10;;;;;;5012761;28;20022;-71
2022/10/23 09:31:19;;;;;;;10.10;2.72;;;25.60;65.10;;;;;;5004302;28;20061;-70
2022/10/23 09:34:00;;;;;;;7.05;3.28;;;25.70;65.10;;;;;;5015345;28;20034;-70
2022/10/23 09:36:29;;;;;;;5.43;2.35;;;25.70;65.00;;;;;;5008217;28;20025;-71
2022/10/23 09:39:00;;;;;;;4.82;2.47;;;25.70;64.90;;;;;;5004916;28;20044;-70
2022/10/23 09:41:29;;;;;;;9.32;3.35;;;25.80;64.80;;;;;;5009827;28;20056;-68
2022/10/23 09:44:08;;;;;;;7.13;2.38;;;25.90;65.30;;;;;;5008492;28;20029;-70
2022/10/23 09:47:06;;;;;;;6.57;2.10;;;25.90;64.30;;;;;;5009875;28;20042;-69
2022/10/23 09:49:34;;;;;;;5.20;1.75;;;25.90;63.80;;;;;;5000001;28;20042;-67
2022/10/23 09:52:09;;;;;;;2.92;1.95;;;26.00;63.60;;;;;;5016432;28;20049;-69
2022/10/23 09:54:50;;;;;;;6.07;2.25;;;26.10;63.30;;;;;;5006037;28;20497;-69
2022/10/23 09:57:22;;;;;;;4.40;1.52;;;26.10;62.60;;;;;;5005073;28;20478;-70
2022/10/23 10:00:01;;;;;;;3.17;1.20;;;26.10;62.40;;;;;;5017191;28;20061;-69
2022/10/23 10:02:31;;;;;;;4.13;1.50;;;26.20;62.30;;;;;;5037176;28;20041;-69
2022/10/23 10:04:58;;;;;;;3.78;1.30;;;26.20;62.10;;;;;;5009119;28;20029;-69
2022/10/23 10:07:28;;;;;;;6.60;2.38;;;26.20;62.10;;;;;;5007880;28;20036;-69
2022/10/23 10:09:56;;;;;;;4.22;1.90;;;26.30;62.20;;;;;;5007161;28;20056;-68
2022/10/23 10:12:25;;;;;;;2.47;1.40;;;26.30;62.30;;;;;;5010757;28;20038;-72
2022/10/23 10:14:54;;;;;;;3.42;1.80;;;26.40;62.50;;;;;;5005025;28;20026;-70
2022/10/23 10:17:46;;;;;;;5.82;2.40;;;26.40;62.30;;;;;;5007185;28;20109;-69
2022/10/23 10:20:35;;;;;;;3.60;2.13;;;26.40;62.00;;;;;;5009782;28;20523;-69
2022/10/23 10:23:13;;;;;;;4.72;2.50;;;26.50;62.20;;;;;;5011379;28;20049;-69
2022/10/23 10:26:04;;;;;;;13.45;3.75;;;26.50;62.10;;;;;;5010294;28;20037;-69
2022/10/23 10:28:59;;;;;;;5.10;2.30;;;26.60;62.20;;;;;;5007931;28;20105;-69
2022/10/23 10:31:45;;;;;;;13.77;3.60;;;26.50;62.40;;;;;;5005611;28;20041;-68
2022/10/23 10:34:19;;;;;;;5.35;2.15;;;26.60;62.80;;;;;;4999195;28;20030;-69
2022/10/23 10:37:15;;;;;;;8.40;2.40;;;26.60;62.80;;;;;;5002629;28;20025;-69
2022/10/23 10:40:12;;;;;;;11.05;2.90;;;26.70;63.00;;;;;;5008717;28;20022;-69
2022/10/23 10:42:54;;;;;;;6.90;2.45;;;26.70;63.00;;;;;;5007308;28;20070;-68
2022/10/23 10:45:37;;;;;;;14.05;3.88;;;26.80;63.00;;;;;;5004778;28;20434;-68
2022/10/23 10:48:10;;;;;;;7.07;2.50;;;26.80;62.90;;;;;;5017434;28;20653;-70
2022/10/23 10:50:48;;;;;;;29.30;7.75;;;26.80;63.00;;;;;;5011013;28;20057;-68
2022/10/23 10:53:22;;;;;;;27.15;16.35;;;26.90;63.30;;;;;;5005955;28;20048;-71
2022/10/23 10:55:51;;;;;;;;;;;26.90;63.70;;;;;;5014622;28;20026;-70
2022/10/23 10:58:29;;;;;;;21.00;8.63;;;26.90;63.80;;;;;;5012523;28;19916;-69
2022/10/23 11:01:01;;;;;;;19.40;8.15;;;27.00;63.80;;;;;;5017721;28;20025;-68
2022/10/23 11:03:43;;;;;;;11.77;5.35;;;27.00;63.80;;;;;;5007418;28;20030;-68
2022/10/23 11:06:15;;;;;;;13.32;5.38;;;27.10;63.70;;;;;;5005130;28;20369;-71
2022/10/23 11:08:42;;;;;;;12.55;4.25;;;27.10;63.50;;;;;;5007965;28;20037;-70
2022/10/23 11:11:40;;;;;;;12.07;3.60;;;27.10;63.30;;;;;;5011958;28;20789;-75
2022/10/23 11:14:14;;;;;;;12.38;4.63;;;27.10;63.30;;;;;;5008383;28;20056;-69
2022/10/23 11:17:23;;;;;;;21.27;5.03;;;27.10;63.50;;;;;;5005849;28;20511;-69
2022/10/23 11:19:58;;;;;;;18.35;4.93;;;27.10;63.70;;;;;;5004137;28;20019;-68
2022/10/23 11:22:46;;;;;;;11.02;4.15;;;27.10;64.20;;;;;;5004051;28;20045;-69
2022/10/23 11:25:33;;;;;;;19.45;5.90;;;27.10;64.20;;;;;;5006712;28;20092;-69
2022/10/23 11:28:18;;;;;;;12.43;4.75;;;27.10;64.30;;;;;;5008648;28;20034;-71
2022/10/23 11:31:03;;;;;;;17.90;4.65;;;27.10;64.40;;;;;;5005472;28;20400;-71
2022/10/23 11:33:52;;;;;;;13.48;4.40;;;27.20;64.30;;;;;;5007077;28;20469;-72
2022/10/23 11:36:32;;;;;;;13.93;4.60;;;27.20;64.40;;;;;;5006290;28;20120;-70
2022/10/23 11:39:47;;;;;;;12.68;3.40;;;27.20;64.50;;;;;;5004806;28;20028;-74
2022/10/23 11:42:53;;;;;;;17.40;4.60;;;27.30;64.60;;;;;;5003590;28;20029;-72
2022/10/23 11:45:53;;;;;;;11.95;3.92;;;27.30;64.50;;;;;;5004315;28;20088;-70
2022/10/23 11:48:21;;;;;;;14.40;5.65;;;27.30;64.40;;;;;;5021953;28;20056;-68
2022/10/23 11:50:50;;;;;;;14.75;3.97;;;27.30;64.30;;;;;;5021697;28;20043;-71
2022/10/23 11:53:31;;;;;;;16.23;4.57;;;27.30;64.40;;;;;;5005204;28;20112;-71
2022/10/23 11:55:59;;;;;;;9.88;4.20;;;27.30;64.40;;;;;;4997485;28;20444;-70
2022/10/23 11:58:53;;;;;;;43.58;17.20;;;27.40;64.40;;;;;;5006570;28;20041;-73
2022/10/23 12:01:38;;;;;;;25.25;8.55;;;27.40;64.40;;;;;;5002824;28;20564;-70
2022/10/23 12:04:14;;;;;;;16.63;7.10;;;27.40;64.50;;;;;;5003522;28;20113;-71
2022/10/23 12:07:15;;;;;;;20.05;6.38;;;27.50;64.60;;;;;;5003070;28;20375;-71
2022/10/23 12:09:51;;;;;;;16.65;5.63;;;27.50;64.60;;;;;;5000636;28;20033;-71
2022/10/23 12:12:47;;;;;;;16.65;5.18;;;27.60;64.40;;;;;;5002565;28;20033;-71
2022/10/23 12:15:25;;;;;;;14.93;4.18;;;27.60;64.20;;;;;;5006968;28;20037;-71
2022/10/23 12:18:13;;;;;;;20.60;8.70;;;27.60;63.80;;;;;;5010223;28;20018;-70
2022/10/23 12:20:59;;;;;;;16.45;5.82;;;27.70;63.80;;;;;;5006378;28;20136;-69
2022/10/23 12:23:44;;;;;;;14.75;4.25;;;27.70;63.70;;;;;;5010016;28;20050;-71
2022/10/23 12:26:37;;;;;;;14.43;4.30;;;27.70;63.70;;;;;;5006697;28;20508;-70
2022/10/23 12:29:22;;;;;;;20.80;4.70;;;27.70;63.50;;;;;;5006516;28;20071;-71
2022/10/23 12:32:04;;;;;;;18.27;3.95;;;27.70;63.40;;;;;;5010894;28;20038;-70
2022/10/23 12:35:05;;;;;;;43.42;8.73;;;27.70;63.20;;;;;;5007931;28;20029;-71
2022/10/23 12:37:45;;;;;;;11.00;3.97;;;27.70;63.30;;;;;;5008626;28;20018;-71
2022/10/23 12:40:14;;;;;;;18.10;4.00;;;27.80;63.50;;;;;;5003107;28;20030;-70
2022/10/23 12:42:51;;;;;;;18.10;3.95;;;27.80;63.40;;;;;;5009273;28;20105;-70
2022/10/23 12:45:24;;;;;;;19.00;6.05;;;27.80;63.20;;;;;;4999208;28;20028;-71
2022/10/23 12:47:51;;;;;;;16.13;5.25;;;27.80;63.10;;;;;;5011315;28;20023;-71
2022/10/23 12:50:23;;;;;;;12.02;5.05;;;27.80;63.10;;;;;;5015393;28;20024;-70
2022/10/23 12:52:54;;;;;;;13.93;3.63;;;27.80;63.70;;;;;;5000640;28;20117;-73
2022/10/23 12:55:22;;;;;;;13.80;4.68;;;27.80;63.00;;;;;;5006125;28;20515;-71
2022/10/23 12:57:49;;;;;;;14.57;4.30;;;27.80;63.10;;;;;;5007355;28;20022;-70
2022/10/23 13:00:20;;;;;;;14.38;6.35;;;27.80;63.00;;;;;;5001867;28;20112;-71
2022/10/23 13:02:56;;;;;;;12.43;4.50;;;27.80;62.90;;;;;;5001941;28;20057;-71
2022/10/23 13:05:24;;;;;;;11.50;3.53;;;27.80;62.80;;;;;;5002712;28;20445;-72
2022/10/23 13:07:51;;;;;;;15.75;3.85;;;27.80;62.80;;;;;;5003247;28;20484;-72
2022/10/23 13:10:19;;;;;;;14.15;3.78;;;27.70;62.60;;;;;;5004455;28;20420;-71
2022/10/23 13:12:58;;;;;;;18.67;5.40;;;27.70;62.60;;;;;;5001793;28;20031;-72
2022/10/23 13:15:35;;;;;;;10.48;3.53;;;27.70;62.60;;;;;;4999029;28;20022;-72
2022/10/23 13:18:03;;;;;;;8.32;3.63;;;27.70;62.50;;;;;;5002560;28;20146;-70
2022/10/23 13:20:36;;;;;;;12.80;3.92;;;27.70;62.50;;;;;;5004631;28;20061;-70
2022/10/23 13:23:21;;;;;;;17.90;4.47;;;27.70;62.50;;;;;;5008309;28;20045;-71
2022/10/23 13:26:23;;;;;;;13.77;5.20;;;27.70;62.50;;;;;;5005465;28;20069;-70
2022/10/23 13:28:50;;;;;;;10.45;4.63;;;27.70;62.60;;;;;;5015088;28;20026;-70
2022/10/23 13:31:17;;;;;;;21.38;12.32;;;27.70;62.60;;;;;;5018640;28;20082;-72
2022/10/23 13:34:02;;;;;;;16.50;5.78;;;27.70;62.50;;;;;;5011532;28;20523;-67
2022/10/23 13:36:33;;;;;;;19.85;5.50;;;27.70;62.60;;;;;;5004629;28;20025;-69
2022/10/23 13:39:08;;;;;;;15.77;3.58;;;27.70;62.50;;;;;;5008881;28;20031;-69
2022/10/23 13:41:47;;;;;;;12.63;4.20;;;27.70;62.60;;;;;;5014342;28;20030;-70
2022/10/23 13:44:16;;;;;;;15.18;4.97;;;27.70;62.60;;;;;;5008428;28;20096;-70